Somerset, Illinois
Current Conditions -  °F | °C
As of 9:47 AM on Friday 24 Oct 2014 (Local Time) from KMDH Reporting Station
Overcast Overcast  
Wind Chill: 57°   Ceiling: 1500
Heat Index: 57°   Visibility: 10mi
Dew Point: 50°   Wind: 3mph
Humidity: 77%   Direction: 250°WSW
Pressure: 30.13"   Gusts: NA
Location:  37.776°N, 89.3234°W
Report Text: KMDH 241447Z 25003KT 10SM OVC015 14/10 A3013 RMK AO2
Loading
Personal Weather Stations






























Interactive Weather Map
Tropical Storm Tracking
New forecast layout! Learn more

10-Day Weather Forecast

Advertisements
Track Severe Weather on mobile